createdAt,value
2023-05-24T00:00:26.961Z,22.70
2023-05-24T00:02:28.817Z,22.70
2023-05-24T00:04:30.842Z,22.70
2023-05-24T00:06:32.640Z,22.70
2023-05-24T00:08:34.473Z,22.70
2023-05-24T00:10:36.258Z,22.70
2023-05-24T00:12:38.078Z,22.70
2023-05-24T00:14:39.844Z,22.70
2023-05-24T00:16:41.793Z,22.70
2023-05-24T00:18:43.656Z,22.70
2023-05-24T00:20:45.717Z,22.70
2023-05-24T00:22:47.718Z,22.70
2023-05-24T00:24:49.544Z,22.70
2023-05-24T00:26:51.322Z,22.70
2023-05-24T00:28:53.236Z,22.70
2023-05-24T00:30:55.039Z,22.70
2023-05-24T00:32:57.610Z,22.70
2023-05-24T00:37:01.711Z,22.70
2023-05-24T00:39:03.658Z,22.70
2023-05-24T00:41:05.542Z,22.70
2023-05-24T01:11:54.676Z,22.70
2023-05-24T01:14:12.394Z,22.70
2023-05-24T01:16:24.216Z,22.70
2023-05-24T01:18:28.854Z,22.70
2023-05-24T01:20:32.469Z,22.60
2023-05-24T01:22:37.005Z,22.70
2023-05-24T01:24:59.090Z,22.70
2023-05-24T01:27:14.461Z,22.60
2023-05-24T01:29:16.495Z,22.60
2023-05-24T01:31:18.958Z,22.60
2023-05-24T01:33:23.738Z,22.60
2023-05-24T01:35:25.594Z,22.60
2023-05-24T01:37:27.356Z,22.60
2023-05-24T01:39:29.574Z,22.70
2023-05-24T01:41:40.654Z,22.60
2023-05-24T01:43:48.758Z,22.60
2023-05-24T01:45:56.494Z,22.60
2023-05-24T01:48:04.243Z,22.60
2023-05-24T01:50:25.935Z,22.70
2023-05-24T01:52:31.625Z,22.60
2023-05-24T01:54:37.516Z,22.60
2023-05-24T01:56:40.659Z,22.60
2023-05-24T01:58:43.587Z,22.60
2023-05-24T02:00:45.812Z,22.60
2023-05-24T02:02:48.085Z,22.60
2023-05-24T02:04:51.351Z,22.60
2023-05-24T02:06:53.196Z,22.60
2023-05-24T02:08:55.049Z,22.60
2023-05-24T02:10:56.864Z,22.60
2023-05-24T02:12:58.807Z,22.60
2023-05-24T02:15:00.597Z,22.60
2023-05-24T02:17:02.500Z,22.60
2023-05-24T02:19:04.292Z,22.60
2023-05-24T02:21:06.128Z,22.60
2023-05-24T02:23:07.906Z,22.60
2023-05-24T02:25:12.081Z,22.60
2023-05-24T02:27:13.840Z,22.60
2023-05-24T02:29:15.722Z,22.60
2023-05-24T02:31:17.697Z,22.60
2023-05-24T02:33:19.684Z,22.60
2023-05-24T02:35:21.586Z,22.60
2023-05-24T02:37:23.434Z,22.60
2023-05-24T02:39:25.212Z,22.60
2023-05-24T02:41:27.054Z,22.60
2023-05-24T02:43:29.325Z,22.60
2023-05-24T02:45:31.377Z,22.60
2023-05-24T02:47:33.297Z,22.60
2023-05-24T02:49:35.189Z,22.60
2023-05-24T02:51:37.100Z,22.60
2023-05-24T02:53:38.957Z,22.60
2023-05-24T02:55:40.753Z,22.60
2023-05-24T02:57:42.689Z,22.60
2023-05-24T02:59:44.673Z,22.60
2023-05-24T03:01:46.942Z,22.60
2023-05-24T03:03:49.008Z,22.60
2023-05-24T03:05:51.012Z,22.60
2023-05-24T03:07:52.805Z,22.60
2023-05-24T03:09:54.912Z,22.60
2023-05-24T03:11:56.699Z,22.60
2023-05-24T03:13:58.690Z,22.50
2023-05-24T03:16:00.721Z,22.50
2023-05-24T03:18:02.698Z,22.60
2023-05-24T03:20:05.858Z,22.50
2023-05-24T03:22:08.171Z,22.60
2023-05-24T03:24:10.718Z,22.60
2023-05-24T03:26:12.919Z,22.60
2023-05-24T03:28:14.739Z,22.50
2023-05-24T03:30:18.179Z,22.60
2023-05-24T03:32:29.393Z,22.50
2023-05-24T03:34:31.384Z,22.50
2023-05-24T03:36:33.243Z,22.50
2023-05-24T03:38:35.117Z,22.50
2023-05-24T03:40:37.100Z,22.60
2023-05-24T03:42:42.235Z,22.50
2023-05-24T03:44:45.264Z,22.50
2023-05-24T03:46:47.144Z,22.60
2023-05-24T03:48:49.226Z,22.50
2023-05-24T03:50:51.077Z,22.50
2023-05-24T03:52:52.917Z,22.50
2023-05-24T03:54:54.788Z,22.50
2023-05-24T03:56:56.591Z,22.50
2023-05-24T03:58:59.239Z,22.50
2023-05-24T04:01:01.473Z,22.50
2023-05-24T04:03:03.647Z,22.50
2023-05-24T04:05:06.193Z,22.50
2023-05-24T04:07:08.135Z,22.50
2023-05-24T04:09:10.046Z,22.50
2023-05-24T04:11:11.929Z,22.50
2023-05-24T04:13:13.691Z,22.50
2023-05-24T04:15:15.525Z,22.50
2023-05-24T04:17:17.401Z,22.50
2023-05-24T04:19:19.320Z,22.50
2023-05-24T04:21:21.231Z,22.50
2023-05-24T04:23:23.067Z,22.50
2023-05-24T04:25:25.368Z,22.50
2023-05-24T04:27:27.322Z,22.50
2023-05-24T04:29:29.136Z,22.50
2023-05-24T04:31:31.003Z,22.50
2023-05-24T04:33:33.213Z,22.50
2023-05-24T04:35:35.082Z,22.50
2023-05-24T04:37:36.884Z,22.50
2023-05-24T04:39:38.779Z,22.50
2023-05-24T04:41:40.527Z,22.50
2023-05-24T04:43:42.364Z,22.50
2023-05-24T04:45:44.210Z,22.50
2023-05-24T04:47:46.155Z,22.50
2023-05-24T04:49:48.008Z,22.50
2023-05-24T04:51:49.926Z,22.50
2023-05-24T04:53:51.674Z,22.50
2023-05-24T04:55:53.508Z,22.40
2023-05-24T04:57:55.314Z,22.50
2023-05-24T04:59:57.221Z,22.50
2023-05-24T05:01:59.018Z,22.50
2023-05-24T05:04:00.975Z,22.50
2023-05-24T05:06:02.798Z,22.50
2023-05-24T05:08:04.868Z,22.50
2023-05-24T05:10:07.225Z,22.50
2023-05-24T05:12:09.092Z,22.50
2023-05-24T05:14:10.890Z,22.40
2023-05-24T05:16:12.927Z,22.40
2023-05-24T05:18:14.766Z,22.50
2023-05-24T05:20:16.753Z,22.40
2023-05-24T05:22:18.557Z,22.40
2023-05-24T05:24:20.367Z,22.50
2023-05-24T05:26:22.151Z,22.50
2023-05-24T05:28:24.042Z,22.50
2023-05-24T05:30:25.815Z,22.40
2023-05-24T05:32:27.731Z,22.50
2023-05-24T05:34:29.603Z,22.40
2023-05-24T05:36:31.447Z,22.40
2023-05-24T05:38:33.243Z,22.40
2023-05-24T05:40:35.107Z,22.40
2023-05-24T05:42:36.882Z,22.40
2023-05-24T05:44:38.737Z,22.50
2023-05-24T05:46:40.524Z,22.40
2023-05-24T05:48:43.283Z,22.40
2023-05-24T05:50:46.773Z,22.40
2023-05-24T05:52:48.676Z,22.40
2023-05-24T05:54:50.454Z,22.40
2023-05-24T05:56:52.336Z,22.40
2023-05-24T05:58:54.134Z,22.40
2023-05-24T06:00:55.977Z,22.40
2023-05-24T06:02:57.847Z,22.40
2023-05-24T06:05:00.372Z,22.40
2023-05-24T06:07:02.167Z,22.40
2023-05-24T06:09:04.052Z,22.40
2023-05-24T06:11:05.825Z,22.40
2023-05-24T06:13:07.705Z,22.40
2023-05-24T06:15:09.674Z,22.40
2023-05-24T06:17:11.480Z,22.40
2023-05-24T06:19:13.332Z,22.40
2023-05-24T06:21:15.524Z,22.40
2023-05-24T06:23:17.327Z,22.40
2023-05-24T06:25:19.212Z,22.40
2023-05-24T06:27:21.100Z,22.40
2023-05-24T06:29:23.027Z,22.40
2023-05-24T06:31:24.885Z,22.50
2023-05-24T06:33:26.802Z,22.40
2023-05-24T06:35:28.587Z,22.40
2023-05-24T06:37:30.409Z,22.40
2023-05-24T06:39:32.190Z,22.40
2023-05-24T06:41:34.097Z,22.40
2023-05-24T06:43:35.892Z,22.40
2023-05-24T06:45:37.755Z,22.40
2023-05-24T06:47:41.679Z,22.40
2023-05-24T06:49:43.617Z,22.40
2023-05-24T06:51:46.031Z,22.40
2023-05-24T06:53:48.647Z,22.40
2023-05-24T06:55:50.519Z,22.40
2023-05-24T06:57:52.557Z,22.40
2023-05-24T06:59:55.735Z,22.40
2023-05-24T07:01:58.961Z,22.40
2023-05-24T07:04:01.853Z,22.40
2023-05-24T07:06:03.785Z,22.40
2023-05-24T07:08:05.607Z,22.40
2023-05-24T07:10:07.764Z,22.40
2023-05-24T07:12:09.732Z,22.40
2023-05-24T07:14:11.612Z,22.40
2023-05-24T07:16:13.395Z,22.40
2023-05-24T07:18:15.307Z,22.40
2023-05-24T07:20:17.176Z,22.40
2023-05-24T07:22:19.062Z,22.40
2023-05-24T07:24:20.833Z,22.40
2023-05-24T07:26:22.696Z,22.40
2023-05-24T07:28:24.498Z,22.40
2023-05-24T07:30:32.199Z,22.40
2023-05-24T07:32:34.332Z,22.40
2023-05-24T07:34:36.327Z,22.40
2023-05-24T07:36:38.186Z,22.40
2023-05-24T07:38:40.080Z,22.40
2023-05-24T07:40:42.101Z,22.40
2023-05-24T07:42:44.123Z,22.30
2023-05-24T07:44:45.895Z,22.30
2023-05-24T07:46:47.828Z,22.30
2023-05-24T07:48:49.635Z,22.30
2023-05-24T07:50:51.524Z,22.30
2023-05-24T07:52:53.326Z,22.30
2023-05-24T07:54:55.281Z,22.30
2023-05-24T07:56:57.068Z,22.30
2023-05-24T07:58:59.227Z,22.30
2023-05-24T08:01:01.007Z,22.30
2023-05-24T08:03:02.944Z,22.30
2023-05-24T08:05:05.006Z,22.40
2023-05-24T08:07:08.820Z,22.30
2023-05-24T08:09:12.628Z,22.30
2023-05-24T08:11:14.537Z,22.20
2023-05-24T08:13:16.308Z,22.20
2023-05-24T08:15:18.145Z,22.20
2023-05-24T08:17:19.888Z,22.20
2023-05-24T08:19:21.693Z,22.20
2023-05-24T08:21:23.492Z,22.20
2023-05-24T08:23:25.350Z,22.20
2023-05-24T08:25:27.130Z,22.20
2023-05-24T08:27:29.057Z,22.30
2023-05-24T08:29:30.842Z,22.30
2023-05-24T08:31:33.250Z,22.30
2023-05-24T08:33:35.438Z,22.30
2023-05-24T08:35:37.264Z,22.30
2023-05-24T08:37:39.012Z,22.30
2023-05-24T08:39:40.979Z,22.30
2023-05-24T08:41:43.593Z,22.30
2023-05-24T08:43:46.255Z,22.30
2023-05-24T08:45:48.650Z,22.30
2023-05-24T08:47:50.997Z,22.30
2023-05-24T08:49:53.877Z,22.30
2023-05-24T08:51:55.879Z,22.30
2023-05-24T08:53:58.766Z,22.30
2023-05-24T08:56:00.821Z,22.20
2023-05-24T08:58:03.081Z,22.30
2023-05-24T09:00:06.308Z,22.30
2023-05-24T09:02:13.727Z,22.30
2023-05-24T09:04:15.876Z,22.30
2023-05-24T09:06:18.256Z,22.30
2023-05-24T09:08:20.201Z,22.30
2023-05-24T09:10:22.815Z,22.30
2023-05-24T09:12:36.266Z,22.30
2023-05-24T09:14:40.424Z,22.30
2023-05-24T09:16:43.937Z,22.30
2023-05-24T09:18:45.768Z,22.30
2023-05-24T09:20:47.843Z,22.30
2023-05-24T09:22:51.590Z,22.30
2023-05-24T09:24:53.724Z,22.30
2023-05-24T09:26:56.469Z,22.30
2023-05-24T09:28:58.496Z,22.30
2023-05-24T09:31:01.027Z,22.30
2023-05-24T09:33:02.979Z,22.30
2023-05-24T09:35:07.847Z,22.30
2023-05-24T09:37:16.090Z,22.30
2023-05-24T09:39:19.315Z,22.30
2023-05-24T09:41:21.177Z,22.40
2023-05-24T09:43:24.905Z,22.40
2023-05-24T09:45:28.394Z,22.40
2023-05-24T09:47:30.830Z,22.40
2023-05-24T09:49:33.279Z,22.30
2023-05-24T09:51:38.353Z,22.30
2023-05-24T09:53:44.627Z,22.40
2023-05-24T09:55:46.476Z,22.40
2023-05-24T09:58:01.532Z,22.30
2023-05-24T10:00:05.513Z,22.40
2023-05-24T10:02:08.250Z,22.40
2023-05-24T10:04:10.504Z,22.40
2023-05-24T10:06:12.669Z,22.40
2023-05-24T10:08:15.779Z,22.40
2023-05-24T10:10:17.873Z,22.40
2023-05-24T10:12:20.608Z,22.40
2023-05-24T10:14:23.793Z,22.30
2023-05-24T10:16:25.893Z,22.40
2023-05-24T10:18:27.767Z,22.30
2023-05-24T10:20:29.618Z,22.30
2023-05-24T10:22:31.938Z,22.30
2023-05-24T10:24:36.731Z,22.40
2023-05-24T10:26:38.994Z,22.30
2023-05-24T10:28:46.123Z,22.30
2023-05-24T10:30:53.944Z,22.30
2023-05-24T10:32:56.926Z,22.30
2023-05-24T10:35:00.133Z,22.30
2023-05-24T10:37:01.996Z,22.30
2023-05-24T10:39:03.987Z,22.30
2023-05-24T10:41:06.204Z,22.30
2023-05-24T10:43:08.446Z,22.30
2023-05-24T10:45:29.682Z,22.40
2023-05-24T10:47:31.561Z,22.40
2023-05-24T10:49:33.408Z,22.30
2023-05-24T10:51:38.879Z,22.30
2023-05-24T10:53:40.870Z,22.30
2023-05-24T10:55:57.715Z,22.30
2023-05-24T10:57:59.536Z,22.30
2023-05-24T11:00:30.793Z,22.30
2023-05-24T11:02:36.941Z,22.30
2023-05-24T11:04:42.770Z,22.30
2023-05-24T11:06:48.120Z,22.30
2023-05-24T11:08:49.880Z,22.30
2023-05-24T11:11:14.983Z,22.30
2023-05-24T11:13:27.170Z,22.30
2023-05-24T11:15:29.120Z,22.30
2023-05-24T11:17:30.970Z,22.30
2023-05-24T11:19:47.350Z,22.30
2023-05-24T11:21:50.457Z,22.30
2023-05-24T11:23:52.348Z,22.30
2023-05-24T11:25:54.240Z,22.30
2023-05-24T11:27:58.421Z,22.30
2023-05-24T11:30:00.786Z,22.30
2023-05-24T11:32:02.682Z,22.30
2023-05-24T11:34:04.789Z,22.30
2023-05-24T11:36:07.128Z,22.30
2023-05-24T11:38:12.476Z,22.30
2023-05-24T11:40:14.289Z,22.30
2023-05-24T11:42:16.159Z,22.30
2023-05-24T11:44:18.464Z,22.30
2023-05-24T11:46:20.474Z,22.30
2023-05-24T11:48:22.431Z,22.30
2023-05-24T11:50:26.561Z,22.30
2023-05-24T11:52:28.806Z,22.40
2023-05-24T11:54:30.942Z,22.40
2023-05-24T11:56:33.862Z,22.30
2023-05-24T11:58:42.917Z,22.30
2023-05-24T12:00:44.799Z,22.30
2023-05-24T12:02:48.087Z,22.30
2023-05-24T12:04:50.061Z,22.40
2023-05-24T12:06:51.915Z,22.30
2023-05-24T12:08:53.678Z,22.30
2023-05-24T12:10:55.541Z,22.30
2023-05-24T12:12:57.662Z,22.30
2023-05-24T12:14:59.498Z,22.40
2023-05-24T12:17:01.526Z,22.40
2023-05-24T12:19:09.529Z,22.40
2023-05-24T12:21:15.921Z,22.30
2023-05-24T12:23:23.053Z,22.40
2023-05-24T12:25:24.856Z,22.30
2023-05-24T12:27:30.132Z,22.40
2023-05-24T12:29:39.083Z,22.40
2023-05-24T12:31:41.327Z,22.40
2023-05-24T12:33:43.131Z,22.40
2023-05-24T12:35:45.768Z,22.40
2023-05-24T12:37:48.030Z,22.40
2023-05-24T12:39:51.242Z,22.40
2023-05-24T12:41:55.406Z,22.40
2023-05-24T12:43:57.320Z,22.40
2023-05-24T12:45:59.080Z,22.40
2023-05-24T12:48:01.073Z,22.40
2023-05-24T12:50:02.952Z,22.40
2023-05-24T12:52:04.937Z,22.40
2023-05-24T12:54:06.762Z,22.40
2023-05-24T12:56:08.641Z,22.40
2023-05-24T12:58:10.402Z,22.40
2023-05-24T13:00:12.470Z,22.40
2023-05-24T13:02:14.309Z,22.40
2023-05-24T13:04:16.596Z,22.50
2023-05-24T13:06:18.634Z,22.40
2023-05-24T13:08:20.496Z,22.40
2023-05-24T13:10:24.986Z,22.40
2023-05-24T13:12:26.883Z,22.40
2023-05-24T13:14:28.658Z,22.40
2023-05-24T13:16:30.494Z,22.40
2023-05-24T13:18:32.336Z,22.40
2023-05-24T13:20:34.187Z,22.50
2023-05-24T13:22:36.638Z,22.50
2023-05-24T13:24:38.494Z,22.50
2023-05-24T13:26:40.287Z,22.50
2023-05-24T13:28:58.682Z,22.50
2023-05-24T13:31:04.391Z,22.50
2023-05-24T13:33:06.329Z,22.50
2023-05-24T13:35:08.753Z,22.40
2023-05-24T13:37:10.937Z,22.40
2023-05-24T13:41:34.611Z,22.40
2023-05-24T13:43:36.428Z,22.40
2023-05-24T13:45:38.297Z,22.40
2023-05-24T13:47:40.612Z,22.50
2023-05-24T13:47:41.002Z,22.50
2023-05-24T13:49:43.405Z,22.40
2023-05-24T13:51:45.178Z,22.40
2023-05-24T13:53:47.053Z,22.40
2023-05-24T13:55:48.867Z,22.40
2023-05-24T13:57:52.380Z,22.50
2023-05-24T13:59:54.307Z,22.50
2023-05-24T14:01:56.194Z,22.50
2023-05-24T14:03:58.385Z,22.50
2023-05-24T14:06:00.276Z,22.50
2023-05-24T14:08:02.153Z,22.50
2023-05-24T14:10:04.054Z,22.50
2023-05-24T14:12:06.024Z,22.50
2023-05-24T14:14:57.965Z,22.50
2023-05-24T14:16:30.174Z,22.50
2023-05-24T14:18:32.186Z,22.50
2023-05-24T14:20:37.414Z,22.50
2023-05-24T14:22:39.607Z,22.50
2023-05-24T14:24:41.378Z,22.50
2023-05-24T14:26:43.294Z,22.60
2023-05-24T14:28:45.045Z,22.60
2023-05-24T14:30:46.898Z,22.60
2023-05-24T14:32:48.724Z,22.60
2023-05-24T14:34:51.394Z,22.60
2023-05-24T14:36:54.199Z,22.60
2023-05-24T14:38:56.064Z,22.60
2023-05-24T14:40:57.817Z,22.60
2023-05-24T14:43:05.990Z,22.60
2023-05-24T14:45:08.039Z,22.60
2023-05-24T14:47:09.879Z,22.60
2023-05-24T14:49:11.620Z,22.60
2023-05-24T14:51:13.473Z,22.60
2023-05-24T14:53:15.246Z,22.60
2023-05-24T14:55:17.130Z,22.60
2023-05-24T14:57:18.925Z,22.60
2023-05-24T14:59:20.718Z,22.60
2023-05-24T15:01:22.505Z,22.60
2023-05-24T15:03:24.442Z,22.60
2023-05-24T15:05:26.261Z,22.60
2023-05-24T15:07:28.149Z,22.60
2023-05-24T15:09:29.915Z,22.70
2023-05-24T15:11:31.731Z,22.60
2023-05-24T15:13:33.519Z,22.60
2023-05-24T15:15:35.352Z,22.70
2023-05-24T15:17:37.172Z,22.70
2023-05-24T15:19:39.089Z,22.70
2023-05-24T15:21:40.867Z,22.70
2023-05-24T15:23:42.711Z,22.70
2023-05-24T15:25:44.811Z,22.60
2023-05-24T15:27:46.747Z,22.60
2023-05-24T15:29:48.537Z,22.60
2023-05-24T15:31:50.558Z,22.60
2023-05-24T15:33:52.330Z,22.60
2023-05-24T15:35:54.134Z,22.60
2023-05-24T15:37:55.917Z,22.60
2023-05-24T15:39:57.776Z,22.60
2023-05-24T15:41:59.528Z,22.60
2023-05-24T15:44:01.377Z,22.60
2023-05-24T15:46:03.135Z,22.60
2023-05-24T15:48:05.037Z,22.60
2023-05-24T15:50:07.442Z,22.60
2023-05-24T15:52:09.662Z,22.60
2023-05-24T15:54:11.685Z,22.60
2023-05-24T15:56:13.530Z,22.60
2023-05-24T15:58:15.300Z,22.60
2023-05-24T16:00:17.764Z,22.60
2023-05-24T16:02:21.472Z,22.60
2023-05-24T16:04:23.475Z,22.60
2023-05-24T16:06:25.267Z,22.50
2023-05-24T16:08:27.997Z,22.50
2023-05-24T16:10:29.875Z,22.50
2023-05-24T16:12:32.997Z,22.50
2023-05-24T16:14:34.895Z,22.50
2023-05-24T16:16:36.788Z,22.50
2023-05-24T16:18:38.587Z,22.50
2023-05-24T16:20:40.461Z,22.50
2023-05-24T16:22:46.958Z,22.50
2023-05-24T16:24:48.812Z,22.50
2023-05-24T16:26:50.607Z,22.50
2023-05-24T16:28:52.471Z,22.50
2023-05-24T16:30:54.334Z,22.50
2023-05-24T16:32:56.225Z,22.50
2023-05-24T16:34:58.016Z,22.50
2023-05-24T16:36:59.942Z,22.40
2023-05-24T16:39:01.739Z,22.40
2023-05-24T16:41:03.559Z,22.40
2023-05-24T16:43:05.296Z,22.40
2023-05-24T16:45:07.333Z,22.40
2023-05-24T16:47:09.147Z,22.40
2023-05-24T16:49:11.029Z,22.40
2023-05-24T16:51:12.821Z,22.40
2023-05-24T16:53:14.676Z,22.40
2023-05-24T16:55:16.578Z,22.40
2023-05-24T16:57:18.438Z,22.40
2023-05-24T16:59:20.385Z,22.40
2023-05-24T17:01:22.708Z,22.40
2023-05-24T17:03:24.679Z,22.40
2023-05-24T17:05:26.577Z,22.30
2023-05-24T17:07:28.360Z,22.30
2023-05-24T17:09:30.238Z,22.30
2023-05-24T17:11:32.028Z,22.30
2023-05-24T17:13:33.957Z,22.30
2023-05-24T17:15:35.745Z,22.30
2023-05-24T17:17:37.650Z,22.30
2023-05-24T17:19:39.453Z,22.30
2023-05-24T17:21:41.283Z,22.30
2023-05-24T17:23:43.022Z,22.30
2023-05-24T17:25:44.867Z,22.30
2023-05-24T17:27:46.646Z,22.30
2023-05-24T17:29:48.446Z,22.30
2023-05-24T17:31:50.254Z,22.30
2023-05-24T17:33:52.136Z,22.30
2023-05-24T17:35:54.042Z,22.30
2023-05-24T17:37:55.848Z,22.30
2023-05-24T17:39:57.666Z,22.30
2023-05-24T17:41:59.527Z,22.30
2023-05-24T17:44:01.280Z,22.30
2023-05-24T17:46:03.680Z,22.30
2023-05-24T17:48:05.991Z,22.30
2023-05-24T17:50:08.086Z,22.20
2023-05-24T17:52:09.897Z,22.30
2023-05-24T17:54:11.697Z,22.30
2023-05-24T17:56:13.480Z,22.20
2023-05-24T17:58:15.378Z,22.20
2023-05-24T18:00:17.357Z,22.20
2023-05-24T18:02:22.668Z,22.30
2023-05-24T18:04:24.506Z,22.30
2023-05-24T18:06:26.322Z,22.20
2023-05-24T18:08:28.072Z,22.20
2023-05-24T18:10:30.025Z,22.20
2023-05-24T18:12:31.817Z,22.20
2023-05-24T18:14:34.080Z,22.20
2023-05-24T18:16:35.956Z,22.20
2023-05-24T18:18:38.020Z,22.20
2023-05-24T18:20:39.876Z,22.20
2023-05-24T18:22:41.753Z,22.20
2023-05-24T18:24:43.521Z,22.20
2023-05-24T18:26:47.271Z,22.20
2023-05-24T18:28:49.275Z,22.20
2023-05-24T18:30:51.688Z,22.20
2023-05-24T18:35:05.040Z,22.20
2023-05-24T18:37:06.783Z,22.10
2023-05-24T18:39:08.587Z,22.10
2023-05-24T18:41:10.398Z,22.20
2023-05-24T18:43:12.262Z,22.10
2023-05-24T18:45:14.024Z,22.10
2023-05-24T18:47:15.999Z,22.10
2023-05-24T18:49:17.757Z,22.10
2023-05-24T18:51:19.599Z,22.10
2023-05-24T18:53:21.394Z,22.10
2023-05-24T18:55:23.257Z,22.10
2023-05-24T18:57:25.245Z,22.10
2023-05-24T18:59:27.108Z,22.10
2023-05-24T19:01:28.917Z,22.10
2023-05-24T19:03:30.887Z,22.10
2023-05-24T19:05:32.742Z,22.00
2023-05-24T19:07:35.130Z,22.00
2023-05-24T19:09:36.920Z,22.00
2023-05-24T19:11:38.783Z,22.10
2023-05-24T19:13:41.183Z,22.00
2023-05-24T19:15:43.371Z,22.00
2023-05-24T19:17:45.390Z,22.00
2023-05-24T19:19:47.233Z,22.00
2023-05-24T19:21:48.989Z,22.00
2023-05-24T19:23:50.855Z,22.00
2023-05-24T19:25:52.621Z,22.00
2023-05-24T19:28:00.035Z,22.00
2023-05-24T19:30:02.433Z,22.00
2023-05-24T19:32:04.449Z,22.00
2023-05-24T19:34:06.237Z,22.00
2023-05-24T19:36:10.482Z,22.00
2023-05-24T19:38:12.424Z,21.90
2023-05-24T19:40:14.266Z,22.00
2023-05-24T19:42:16.100Z,22.00
2023-05-24T19:44:18.051Z,22.00
2023-05-24T19:46:19.837Z,21.90
2023-05-24T19:48:21.715Z,21.90
2023-05-24T19:50:23.465Z,21.90
2023-05-24T19:52:25.293Z,21.90
2023-05-24T19:54:27.096Z,21.90
2023-05-24T19:56:28.926Z,21.90
2023-05-24T19:58:30.682Z,21.90
2023-05-24T20:00:32.536Z,21.90
2023-05-24T20:02:36.384Z,21.90
2023-05-24T20:04:38.544Z,21.90
2023-05-24T20:06:40.421Z,21.90
2023-05-24T20:08:42.547Z,21.90
2023-05-24T20:10:44.304Z,21.90
2023-05-24T20:12:46.164Z,21.90
2023-05-24T20:14:47.949Z,21.90
2023-05-24T20:16:49.941Z,21.90
2023-05-24T20:18:51.778Z,21.90
2023-05-24T20:20:53.627Z,21.90
2023-05-24T20:22:55.442Z,21.90
2023-05-24T20:24:57.325Z,21.90
2023-05-24T20:26:59.067Z,21.90
2023-05-24T20:29:00.889Z,21.90
2023-05-24T20:31:02.966Z,21.90
2023-05-24T20:33:04.919Z,21.90
2023-05-24T20:35:07.015Z,21.80
2023-05-24T20:37:08.902Z,21.90
2023-05-24T20:39:10.682Z,21.90
2023-05-24T20:41:12.562Z,21.80
2023-05-24T20:43:14.338Z,21.80
2023-05-24T20:45:16.304Z,21.80
2023-05-24T20:47:18.056Z,21.80
2023-05-24T20:49:19.877Z,21.80
2023-05-24T20:51:21.643Z,21.80
2023-05-24T20:53:23.462Z,21.80
2023-05-24T20:55:26.767Z,21.80
2023-05-24T20:57:29.010Z,21.80
2023-05-24T20:59:30.753Z,21.80
2023-05-24T21:01:32.660Z,21.80
2023-05-24T21:03:34.601Z,21.80
2023-05-24T21:05:36.484Z,21.80
2023-05-24T21:07:38.290Z,21.80
2023-05-24T21:09:40.128Z,21.80
2023-05-24T21:11:41.880Z,21.80
2023-05-24T21:13:43.711Z,21.80
2023-05-24T21:15:45.813Z,21.80
2023-05-24T21:17:47.777Z,21.80
2023-05-24T21:19:49.620Z,21.80
2023-05-24T21:21:51.506Z,21.80
2023-05-24T21:23:53.306Z,21.80
2023-05-24T21:25:55.106Z,21.80
2023-05-24T21:27:56.892Z,21.80
2023-05-24T21:29:58.740Z,21.80
2023-05-24T21:32:00.483Z,21.80
2023-05-24T21:34:02.335Z,21.80
2023-05-24T21:36:04.332Z,21.80
2023-05-24T21:38:06.160Z,21.80
2023-05-24T21:40:08.134Z,21.80
2023-05-24T21:42:10.139Z,21.80
2023-05-24T21:44:11.888Z,21.80
2023-05-24T21:46:13.808Z,21.70
2023-05-24T21:48:15.602Z,21.70
2023-05-24T21:50:17.408Z,21.70
2023-05-24T21:52:19.495Z,21.70
2023-05-24T21:54:21.345Z,21.70
2023-05-24T21:56:23.131Z,21.70
2023-05-24T21:58:24.980Z,21.70
2023-05-24T22:00:26.803Z,21.70
2023-05-24T22:02:28.681Z,21.70
2023-05-24T22:04:30.487Z,21.70
2023-05-24T22:06:32.492Z,21.70
2023-05-24T22:08:34.279Z,21.70
2023-05-24T22:10:36.129Z,21.70
2023-05-24T22:12:39.350Z,21.70
2023-05-24T22:14:41.145Z,21.70
2023-05-24T22:16:43.045Z,21.70
2023-05-24T22:18:45.055Z,21.70
2023-05-24T22:20:47.068Z,21.70
2023-05-24T22:22:48.980Z,21.70
2023-05-24T22:24:50.778Z,21.70
2023-05-24T22:26:52.640Z,21.70
2023-05-24T22:28:55.922Z,21.70
2023-05-24T22:30:57.739Z,21.70
2023-05-24T22:32:59.514Z,21.70
2023-05-24T22:35:01.438Z,21.70
2023-05-24T22:37:03.240Z,21.70
2023-05-24T22:39:05.270Z,21.70
2023-05-24T22:41:07.246Z,21.70
2023-05-24T22:43:09.110Z,21.70
2023-05-24T22:45:10.952Z,21.70
2023-05-24T22:47:12.801Z,21.70
2023-05-24T22:49:14.556Z,21.60
2023-05-24T22:51:16.388Z,21.70
2023-05-24T22:53:18.175Z,21.70
2023-05-24T22:55:20.009Z,21.60
2023-05-24T22:57:21.855Z,21.70
2023-05-24T22:59:23.765Z,21.70
2023-05-24T23:01:25.560Z,21.60
2023-05-24T23:03:27.428Z,21.60
2023-05-24T23:05:29.312Z,21.60
2023-05-24T23:07:31.178Z,21.60
2023-05-24T23:09:32.990Z,21.60
2023-05-24T23:11:35.031Z,21.60
2023-05-24T23:13:37.416Z,21.60
2023-05-24T23:15:39.318Z,21.60
2023-05-24T23:17:41.150Z,21.60
2023-05-24T23:19:43.257Z,21.60
2023-05-24T23:21:45.076Z,21.60
2023-05-24T23:23:46.944Z,21.60
2023-05-24T23:25:49.618Z,21.60
2023-05-24T23:27:51.452Z,21.60
2023-05-24T23:29:53.227Z,21.60
2023-05-24T23:31:55.039Z,21.60
2023-05-24T23:33:56.813Z,21.60
2023-05-24T23:35:58.677Z,21.60
2023-05-24T23:38:00.474Z,21.60
2023-05-24T23:40:02.367Z,21.60
2023-05-24T23:42:04.556Z,21.60
2023-05-24T23:44:06.384Z,21.60
2023-05-24T23:46:08.137Z,21.60
2023-05-24T23:48:10.066Z,21.60
2023-05-24T23:50:11.927Z,21.60
2023-05-24T23:52:13.782Z,21.60
2023-05-24T23:54:15.614Z,21.60
2023-05-24T23:56:17.475Z,21.60
2023-05-24T23:58:19.254Z,21.60
